createdAt,value
2018-06-05T00:01:26.660Z,81.30
2018-06-05T00:06:24.053Z,82.40
2018-06-05T00:08:53.094Z,82.80
2018-06-05T00:11:21.916Z,82.40
2018-06-05T00:19:16.718Z,81.90
2018-06-05T00:21:45.496Z,82.00
2018-06-05T00:24:14.341Z,82.10
2018-06-05T00:26:43.161Z,81.80
2018-06-05T00:29:11.925Z,81.50
2018-06-05T00:31:41.054Z,81.30
2018-06-05T00:34:09.810Z,81.70
2018-06-05T00:36:38.681Z,82.50
2018-06-05T00:39:07.989Z,82.80
2018-06-05T00:41:36.765Z,82.90
2018-06-05T00:44:05.525Z,82.60
2018-06-05T00:46:34.330Z,82.20
2018-06-05T00:49:03.118Z,82.00
2018-06-05T00:51:43.341Z,82.70
2018-06-05T00:54:12.159Z,82.90
2018-06-05T00:56:41.021Z,83.70
2018-06-05T00:59:09.909Z,83.80
2018-06-05T01:01:38.742Z,84.20
2018-06-05T01:04:07.525Z,83.80
2018-06-05T01:06:36.332Z,83.90
2018-06-05T01:11:35.081Z,85.00
2018-06-05T01:14:04.022Z,84.50
2018-06-05T01:16:32.818Z,85.20
2018-06-05T01:23:58.810Z,84.30
2018-06-05T01:26:27.632Z,84.70
2018-06-05T01:28:56.425Z,84.70
2018-06-05T01:31:25.198Z,83.70
2018-06-05T01:33:53.941Z,84.90
2018-06-05T01:36:22.709Z,85.30
2018-06-05T01:38:51.701Z,85.30
2018-06-05T01:41:20.694Z,85.30
2018-06-05T01:43:49.473Z,85.20
2018-06-05T01:46:18.265Z,85.60
2018-06-05T01:48:47.013Z,85.60
2018-06-05T01:51:15.782Z,85.50
2018-06-05T01:53:44.565Z,85.70
2018-06-05T01:56:13.375Z,85.10
2018-06-05T02:01:10.673Z,84.50
2018-06-05T02:03:39.442Z,84.60
2018-06-05T02:06:08.225Z,84.90
2018-06-05T02:08:37.114Z,85.60
2018-06-05T02:11:05.889Z,85.60
2018-06-05T02:13:34.657Z,84.90
2018-06-05T02:16:03.441Z,85.10
2018-06-05T02:21:00.753Z,84.90
2018-06-05T02:23:29.565Z,84.70
2018-06-05T02:25:58.341Z,84.90
2018-06-05T02:28:27.157Z,84.30
2018-06-05T02:30:55.999Z,84.20
2018-06-05T02:33:24.797Z,83.60
2018-06-05T02:35:53.595Z,84.50
2018-06-05T02:38:22.346Z,84.00
2018-06-05T02:40:53.518Z,84.60
2018-06-05T02:43:22.338Z,85.00
2018-06-05T02:45:51.533Z,84.70
2018-06-05T02:48:20.312Z,85.00
2018-06-05T02:50:49.290Z,85.40
2018-06-05T02:53:18.158Z,85.90
2018-06-05T02:55:47.010Z,85.00
2018-06-05T02:58:15.778Z,84.80
2018-06-05T03:00:44.565Z,84.80
2018-06-05T03:03:13.335Z,84.30
2018-06-05T03:05:42.138Z,84.30
2018-06-05T03:08:10.965Z,84.10
2018-06-05T03:10:39.862Z,84.10
2018-06-05T03:15:37.081Z,83.40
2018-06-05T03:18:05.842Z,83.30
2018-06-05T03:20:34.620Z,83.30
2018-06-05T03:25:32.000Z,83.30
2018-06-05T03:28:00.762Z,82.50
2018-06-05T03:30:30.620Z,82.30
2018-06-05T03:32:59.473Z,81.90
2018-06-05T03:35:28.353Z,81.50
2018-06-05T03:37:57.142Z,82.00
2018-06-05T03:40:26.000Z,81.90
2018-06-05T03:42:54.797Z,82.60
2018-06-05T03:45:23.566Z,81.50
2018-06-05T03:47:52.353Z,81.10
2018-06-05T03:50:21.149Z,80.80
2018-06-05T03:52:49.937Z,80.50
2018-06-05T03:55:18.717Z,80.00
2018-06-05T03:57:47.628Z,80.10
2018-06-05T04:00:16.438Z,79.70
2018-06-05T04:02:45.209Z,79.50
2018-06-05T04:05:14.138Z,79.40
2018-06-05T04:10:11.386Z,79.00
2018-06-05T04:12:40.158Z,79.50
2018-06-05T04:15:08.946Z,79.50
2018-06-05T04:17:37.837Z,79.40
2018-06-05T04:20:06.645Z,79.10
2018-06-05T04:22:35.412Z,78.30
2018-06-05T04:25:04.229Z,78.80
2018-06-05T04:27:33.123Z,79.20
2018-06-05T04:30:02.010Z,78.30
2018-06-05T04:32:30.781Z,78.20
2018-06-05T04:34:59.595Z,77.90
2018-06-05T04:39:56.853Z,77.40
2018-06-05T04:42:25.677Z,77.50
2018-06-05T04:44:54.598Z,77.50
2018-06-05T04:47:23.386Z,77.50
2018-06-05T04:49:52.353Z,77.00
2018-06-05T04:52:21.125Z,77.50
2018-06-05T04:54:49.915Z,77.10
2018-06-05T04:57:18.696Z,77.20
2018-06-05T04:59:47.449Z,75.90
2018-06-05T05:02:16.236Z,76.30
2018-06-05T05:04:44.996Z,76.00
2018-06-05T05:07:13.754Z,75.80
2018-06-05T05:09:42.529Z,76.10
2018-06-05T05:12:11.326Z,75.50
2018-06-05T05:14:40.077Z,74.60
2018-06-05T05:17:08.944Z,73.80
2018-06-05T05:19:37.690Z,74.30
2018-06-05T05:24:34.966Z,73.70
2018-06-05T05:27:03.745Z,72.20
2018-06-05T05:29:32.509Z,71.90
2018-06-05T05:32:01.281Z,71.80
2018-06-05T05:34:30.029Z,71.90
2018-06-05T05:36:58.802Z,72.00
2018-06-05T05:39:27.553Z,71.70
2018-06-05T05:41:56.372Z,71.00
2018-06-05T05:49:22.297Z,70.50
2018-06-05T05:51:51.121Z,70.60
2018-06-05T05:59:16.870Z,69.50
2018-06-05T06:04:14.110Z,69.00
2018-06-05T06:06:42.926Z,68.70
2018-06-05T06:09:11.713Z,68.30
2018-06-05T06:11:40.481Z,67.40
2018-06-05T06:14:09.292Z,67.70
2018-06-05T06:16:38.081Z,67.50
2018-06-05T06:19:06.841Z,67.00
2018-06-05T06:21:35.673Z,66.60
2018-06-05T06:26:32.930Z,67.50
2018-06-05T06:29:01.697Z,68.30
2018-06-05T06:31:30.482Z,68.50
2018-06-05T06:33:59.245Z,69.20
2018-06-05T06:36:28.005Z,69.10
2018-06-05T06:38:56.769Z,69.50
2018-06-05T06:41:25.562Z,69.30
2018-06-05T06:43:54.321Z,69.50
2018-06-05T06:46:23.195Z,69.50
2018-06-05T06:48:52.016Z,69.50
2018-06-05T06:53:49.201Z,69.30
2018-06-05T06:58:46.436Z,68.30
2018-06-05T07:01:15.218Z,68.90
2018-06-05T07:03:44.006Z,68.40
2018-06-05T07:06:12.794Z,68.90
2018-06-05T07:08:41.580Z,68.60
2018-06-05T07:11:10.355Z,68.90
2018-06-05T07:13:39.141Z,69.40
2018-06-05T07:16:07.901Z,69.90
2018-06-05T07:18:36.682Z,69.40
2018-06-05T07:23:33.957Z,68.50
2018-06-05T07:28:31.213Z,69.30
2018-06-05T07:30:59.997Z,69.00
2018-06-05T07:33:28.790Z,69.10
2018-06-05T07:35:57.550Z,67.90
2018-06-05T07:38:26.329Z,69.10
2018-06-05T07:40:55.084Z,69.00
2018-06-05T07:43:23.845Z,68.70
2018-06-05T07:48:21.103Z,69.10
2018-06-05T07:50:50.001Z,69.70
2018-06-05T07:53:18.769Z,68.90
2018-06-05T07:55:47.534Z,68.70
2018-06-05T07:58:16.295Z,68.70
2018-06-05T08:00:45.046Z,68.40
2018-06-05T08:03:13.909Z,68.00
2018-06-05T08:05:42.861Z,68.10
2018-06-05T08:10:40.105Z,68.30
2018-06-05T08:13:08.872Z,68.60
2018-06-05T08:15:37.785Z,68.20
2018-06-05T08:18:06.565Z,68.10
2018-06-05T08:20:35.319Z,68.10
2018-06-05T08:23:04.118Z,68.30
2018-06-05T08:25:32.941Z,69.30
2018-06-05T08:28:01.705Z,67.80
2018-06-05T08:30:30.488Z,68.00
2018-06-05T08:32:59.275Z,66.80
2018-06-05T08:35:28.045Z,67.40
2018-06-05T08:37:56.842Z,67.00
2018-06-05T08:40:25.568Z,66.30
2018-06-05T08:42:54.329Z,66.70
2018-06-05T08:45:23.106Z,66.10
2018-06-05T08:47:51.857Z,65.30
2018-06-05T08:50:20.622Z,64.60
2018-06-05T08:52:49.388Z,65.20
2018-06-05T08:55:18.149Z,64.90
2018-06-05T08:57:46.953Z,66.10
2018-06-05T09:00:15.724Z,65.20
2018-06-05T09:02:44.477Z,65.10
2018-06-05T09:07:41.711Z,61.80
2018-06-05T09:10:10.522Z,61.80
2018-06-05T09:12:39.401Z,61.60
2018-06-05T09:15:08.201Z,61.30
2018-06-05T09:17:36.969Z,61.80
2018-06-05T09:20:05.746Z,61.60
2018-06-05T09:22:34.529Z,62.20
2018-06-05T09:25:03.291Z,60.00
2018-06-05T09:27:32.046Z,60.30
2018-06-05T09:30:00.809Z,61.20
2018-06-05T09:32:29.725Z,59.30
2018-06-05T09:34:58.501Z,59.40
2018-06-05T09:37:27.276Z,59.50
2018-06-05T09:39:56.605Z,58.60
2018-06-05T09:42:25.393Z,58.40
2018-06-05T09:49:51.449Z,56.80
2018-06-05T09:52:20.296Z,57.30
2018-06-05T09:54:49.052Z,55.90
2018-06-05T09:57:17.814Z,56.20
2018-06-05T09:59:46.576Z,56.10
2018-06-05T10:02:15.380Z,55.80
2018-06-05T10:04:44.141Z,54.50
2018-06-05T10:07:12.913Z,56.00
2018-06-05T10:09:41.672Z,55.80
2018-06-05T10:12:10.442Z,55.50
2018-06-05T10:14:39.222Z,53.70
2018-06-05T10:17:07.989Z,53.70
2018-06-05T10:19:36.765Z,52.10
2018-06-05T10:22:05.549Z,52.10
2018-06-05T10:24:34.312Z,52.60
2018-06-05T10:27:03.070Z,51.50
2018-06-05T10:29:31.839Z,52.70
2018-06-05T10:32:00.597Z,52.40
2018-06-05T10:34:29.365Z,49.30
2018-06-05T10:36:58.122Z,51.10
2018-06-05T10:39:26.893Z,46.70
2018-06-05T10:41:55.752Z,48.10
2018-06-05T10:44:25.614Z,47.30
2018-06-05T10:46:54.377Z,46.40
2018-06-05T10:49:23.321Z,46.60
2018-06-05T10:51:52.106Z,45.20
2018-06-05T10:54:20.877Z,44.60
2018-06-05T10:59:18.133Z,45.00
2018-06-05T11:01:46.885Z,45.70
2018-06-05T11:04:15.668Z,45.30
2018-06-05T11:06:44.398Z,44.00
2018-06-05T11:09:13.431Z,43.60
2018-06-05T11:11:42.257Z,44.90
2018-06-05T11:14:11.045Z,45.00
2018-06-05T11:16:40.852Z,42.60
2018-06-05T11:19:09.674Z,44.00
2018-06-05T11:21:38.553Z,43.90
2018-06-05T11:24:07.317Z,43.50
2018-06-05T11:26:36.090Z,41.40
2018-06-05T11:29:05.209Z,39.80
2018-06-05T11:31:33.988Z,40.60
2018-06-05T11:34:02.737Z,40.60
2018-06-05T11:36:31.519Z,39.20
2018-06-05T11:41:28.733Z,38.10
2018-06-05T11:43:57.476Z,39.00
2018-06-05T11:46:26.281Z,38.90
2018-06-05T11:48:55.046Z,38.70
2018-06-05T11:53:52.372Z,37.60
2018-06-05T11:56:21.136Z,35.40
2018-06-05T11:58:49.889Z,36.50
2018-06-05T12:01:18.696Z,36.60
2018-06-05T12:06:15.954Z,36.10
2018-06-05T12:08:44.745Z,36.00
2018-06-05T12:11:13.533Z,36.10
2018-06-05T12:16:10.749Z,36.70
2018-06-05T12:18:39.500Z,36.20
2018-06-05T12:21:08.293Z,36.60
2018-06-05T12:23:37.057Z,36.80
2018-06-05T12:26:05.853Z,36.90
2018-06-05T12:28:34.760Z,36.80
2018-06-05T12:31:05.690Z,36.80
2018-06-05T12:33:34.416Z,36.90
2018-06-05T12:36:03.177Z,35.70
2018-06-05T12:38:31.942Z,36.00
2018-06-05T12:43:29.165Z,36.20
2018-06-05T12:45:57.992Z,35.90
2018-06-05T12:48:27.148Z,37.00
2018-06-05T12:50:56.046Z,36.90
2018-06-05T12:53:24.794Z,37.60
2018-06-05T12:58:22.434Z,37.00
2018-06-05T13:00:51.253Z,37.70
2018-06-05T13:08:16.998Z,38.60
2018-06-05T13:10:45.776Z,38.00
2018-06-05T13:13:14.538Z,35.80
2018-06-05T13:15:43.317Z,37.70
2018-06-05T13:18:12.105Z,36.80
2018-06-05T13:20:40.893Z,35.60
2018-06-05T13:23:09.699Z,33.80
2018-06-05T13:25:38.448Z,34.80
2018-06-05T13:28:07.213Z,33.50
2018-06-05T13:30:36.006Z,35.30
2018-06-05T13:33:04.769Z,35.00
2018-06-05T13:38:02.053Z,33.00
2018-06-05T13:40:30.829Z,33.80
2018-06-05T13:42:59.605Z,34.00
2018-06-05T13:45:28.370Z,33.20
2018-06-05T13:47:57.206Z,33.90
2018-06-05T13:50:25.966Z,34.50
2018-06-05T13:52:54.774Z,34.50
2018-06-05T13:55:23.533Z,34.50
2018-06-05T13:57:52.299Z,33.90
2018-06-05T14:00:21.049Z,33.40
2018-06-05T14:02:49.822Z,34.20
2018-06-05T14:05:18.577Z,35.20
2018-06-05T14:07:47.360Z,32.90
2018-06-05T14:10:16.113Z,34.50
2018-06-05T14:15:13.357Z,33.80
2018-06-05T14:17:42.126Z,32.50
2018-06-05T14:20:10.894Z,32.00
2018-06-05T14:22:39.788Z,32.30
2018-06-05T14:25:08.548Z,32.20
2018-06-05T14:30:05.961Z,31.10
2018-06-05T14:32:34.721Z,31.90
2018-06-05T14:35:03.477Z,31.90
2018-06-05T14:40:00.734Z,32.80
2018-06-05T14:42:29.509Z,33.30
2018-06-05T14:44:58.352Z,34.00
2018-06-05T14:47:27.041Z,32.20
2018-06-05T14:49:55.789Z,30.70
2018-06-05T14:52:24.561Z,31.80
2018-06-05T14:54:53.325Z,32.40
2018-06-05T14:57:22.709Z,32.30
2018-06-05T14:59:51.565Z,33.70
2018-06-05T15:02:20.329Z,33.40
2018-06-05T15:04:49.093Z,33.00
2018-06-05T15:07:17.877Z,33.10
2018-06-05T15:09:46.766Z,34.00
2018-06-05T15:12:15.573Z,33.90
2018-06-05T15:14:44.493Z,33.70
2018-06-05T15:17:13.246Z,32.50
2018-06-05T15:19:41.993Z,33.60
2018-06-05T15:24:39.681Z,33.70
2018-06-05T15:29:37.148Z,32.90
2018-06-05T15:32:06.241Z,32.80
2018-06-05T15:37:03.478Z,33.40
2018-06-05T15:39:32.401Z,33.90
2018-06-05T15:44:29.669Z,33.30
2018-06-05T15:54:23.895Z,34.00
2018-06-05T15:56:52.677Z,33.30
2018-06-05T15:59:21.466Z,32.20
2018-06-05T16:01:50.233Z,32.80
2018-06-05T16:04:19.017Z,32.10
2018-06-05T16:06:47.937Z,31.50
2018-06-05T16:09:16.930Z,30.70
2018-06-05T16:11:45.713Z,30.40
2018-06-05T16:14:14.669Z,30.60
2018-06-05T16:16:43.451Z,29.40
2018-06-05T16:19:12.222Z,29.70
2018-06-05T16:21:41.002Z,30.00
2018-06-05T16:24:09.784Z,31.40
2018-06-05T16:29:07.033Z,33.50
2018-06-05T16:31:35.797Z,33.50
2018-06-05T16:34:04.565Z,33.60
2018-06-05T16:36:33.314Z,32.90
2018-06-05T16:39:02.085Z,31.90
2018-06-05T16:41:30.866Z,32.40
2018-06-05T16:43:59.636Z,32.00
2018-06-05T16:46:28.790Z,32.60
2018-06-05T16:48:57.573Z,33.80
2018-06-05T16:51:26.361Z,35.50
2018-06-05T16:53:55.150Z,35.90
2018-06-05T16:56:23.905Z,34.60
2018-06-05T16:58:52.689Z,34.30
2018-06-05T17:01:21.502Z,34.80
2018-06-05T17:06:18.786Z,35.20
2018-06-05T17:08:47.575Z,34.90
2018-06-05T17:11:16.620Z,35.20
2018-06-05T17:13:45.460Z,35.20
2018-06-05T17:16:15.148Z,35.70
2018-06-05T17:18:44.042Z,35.40
2018-06-05T17:21:12.810Z,35.90
2018-06-05T17:23:41.754Z,36.50
2018-06-05T17:26:10.704Z,36.50
2018-06-05T17:28:39.466Z,36.90
2018-06-05T17:31:08.253Z,37.90
2018-06-05T17:33:37.079Z,38.20
2018-06-05T17:38:34.353Z,38.40
2018-06-05T17:43:31.586Z,37.70
2018-06-05T17:46:00.428Z,37.90
2018-06-05T17:48:29.302Z,37.10
2018-06-05T17:50:58.164Z,37.30
2018-06-05T17:53:27.029Z,37.10
2018-06-05T17:55:55.800Z,37.90
2018-06-05T17:58:24.558Z,38.00
2018-06-05T18:05:50.320Z,37.20
2018-06-05T18:08:19.070Z,36.90
2018-06-05T18:10:47.881Z,37.30
2018-06-05T18:13:16.645Z,37.90
2018-06-05T18:15:45.412Z,37.10
2018-06-05T18:18:14.197Z,36.30
2018-06-05T18:20:42.959Z,36.00
2018-06-05T18:23:11.725Z,34.70
2018-06-05T18:25:40.537Z,35.40
2018-06-05T18:28:09.317Z,34.90
2018-06-05T18:30:38.297Z,35.20
2018-06-05T18:33:07.070Z,35.10
2018-06-05T18:35:35.865Z,34.90
2018-06-05T18:38:04.638Z,34.30
2018-06-05T18:40:33.400Z,34.80
2018-06-05T18:43:02.147Z,34.10
2018-06-05T18:47:59.369Z,31.50
2018-06-05T18:50:28.117Z,32.00
2018-06-05T18:55:26.978Z,32.00
2018-06-05T18:57:55.740Z,32.60
2018-06-05T19:00:24.561Z,33.00
2018-06-05T19:02:53.432Z,33.20
2018-06-05T19:05:22.222Z,32.80
2018-06-05T19:07:50.958Z,33.20
2018-06-05T19:12:48.169Z,34.00
2018-06-05T19:15:16.921Z,33.20
2018-06-05T19:22:42.625Z,34.00
2018-06-05T19:25:11.397Z,34.30
2018-06-05T19:27:40.146Z,33.50
2018-06-05T19:32:37.397Z,34.60
2018-06-05T19:35:06.165Z,35.30
2018-06-05T19:37:34.923Z,35.60
2018-06-05T19:40:03.701Z,35.70
2018-06-05T19:42:32.452Z,35.70
2018-06-05T19:45:01.202Z,36.00
2018-06-05T19:47:30.042Z,36.20
2018-06-05T19:52:28.837Z,36.40
2018-06-05T19:54:57.598Z,36.40
2018-06-05T19:57:26.401Z,36.60
2018-06-05T19:59:55.167Z,36.10
2018-06-05T20:02:23.954Z,35.40
2018-06-05T20:04:52.725Z,35.80
2018-06-05T20:07:21.491Z,35.90
2018-06-05T20:09:50.253Z,35.90
2018-06-05T20:12:19.038Z,35.90
2018-06-05T20:14:47.733Z,35.50
2018-06-05T20:17:16.488Z,34.90
2018-06-05T20:19:45.255Z,35.00
2018-06-05T20:22:14.588Z,34.80
2018-06-05T20:24:49.185Z,34.40
2018-06-05T20:27:18.657Z,35.00
2018-06-05T20:29:47.421Z,34.40
2018-06-05T20:32:16.367Z,34.90
2018-06-05T20:34:45.329Z,34.50
2018-06-05T20:37:14.118Z,34.80
2018-06-05T20:39:42.862Z,34.60
2018-06-05T20:42:11.634Z,34.70
2018-06-05T20:44:40.383Z,34.40
2018-06-05T20:49:37.685Z,35.70
2018-06-05T20:52:06.476Z,35.30
2018-06-05T20:54:35.197Z,35.10
2018-06-05T20:57:03.953Z,35.60
2018-06-05T20:59:32.702Z,35.90
2018-06-05T21:04:29.961Z,35.30
2018-06-05T21:09:27.197Z,35.40
2018-06-05T21:11:55.977Z,35.20
2018-06-05T21:14:24.727Z,35.00
2018-06-05T21:16:53.515Z,35.00
2018-06-05T21:19:22.248Z,35.30
2018-06-05T21:21:51.010Z,35.00
2018-06-05T21:24:19.749Z,34.60
2018-06-05T21:26:48.529Z,35.20
2018-06-05T21:29:17.282Z,34.60
2018-06-05T21:31:46.102Z,35.50
2018-06-05T21:34:14.877Z,35.50
2018-06-05T21:36:43.657Z,35.20
2018-06-05T21:39:12.393Z,34.90
2018-06-05T21:44:09.600Z,34.80
2018-06-05T21:46:38.592Z,35.80
2018-06-05T21:49:07.349Z,36.60
2018-06-05T21:51:36.111Z,36.70
2018-06-05T21:54:04.977Z,36.90
2018-06-05T21:56:33.725Z,37.20
2018-06-05T21:59:02.490Z,37.50
2018-06-05T22:01:31.329Z,37.80
2018-06-05T22:04:00.069Z,37.40
2018-06-05T22:08:57.334Z,37.90
2018-06-05T22:11:26.093Z,38.00
2018-06-05T22:13:54.881Z,38.60
2018-06-05T22:16:23.653Z,39.10
2018-06-05T22:18:52.401Z,39.40
2018-06-05T22:23:49.654Z,40.30
2018-06-05T22:26:18.392Z,40.10
2018-06-05T22:28:47.144Z,41.10
2018-06-05T22:33:44.349Z,41.80
2018-06-05T22:36:13.089Z,42.30
2018-06-05T22:38:41.845Z,42.70
2018-06-05T22:41:10.585Z,42.90
2018-06-05T22:43:39.353Z,43.20
2018-06-05T22:46:08.109Z,44.00
2018-06-05T22:48:36.877Z,44.60
2018-06-05T22:51:05.603Z,44.60
2018-06-05T22:53:34.349Z,45.20
2018-06-05T22:56:03.089Z,45.20
2018-06-05T22:58:31.859Z,45.40
2018-06-05T23:01:00.593Z,46.10
2018-06-05T23:03:29.356Z,46.20
2018-06-05T23:05:58.106Z,46.90
2018-06-05T23:08:26.911Z,47.10
2018-06-05T23:10:55.669Z,47.30
2018-06-05T23:13:24.429Z,47.50
2018-06-05T23:15:53.194Z,47.80
2018-06-05T23:18:22.010Z,48.10
2018-06-05T23:20:50.769Z,48.60
2018-06-05T23:23:19.539Z,48.70
2018-06-05T23:25:48.321Z,48.90
2018-06-05T23:28:17.087Z,49.20
2018-06-05T23:30:45.934Z,49.70
2018-06-05T23:35:43.245Z,50.10
2018-06-05T23:38:12.003Z,50.50
2018-06-05T23:40:40.745Z,50.80
2018-06-05T23:43:09.538Z,51.00
2018-06-05T23:45:38.293Z,51.20
2018-06-05T23:48:07.061Z,51.60
2018-06-05T23:50:35.817Z,52.20
2018-06-05T23:53:04.678Z,52.40
2018-06-05T23:55:33.409Z,52.70
2018-06-05T23:58:02.164Z,52.70
